createdAt,value
2023-02-19T00:01:47.969Z,9.68
2023-02-19T00:04:24.620Z,9.66
2023-02-19T00:06:51.567Z,9.63
2023-02-19T00:09:20.119Z,9.61
2023-02-19T00:11:48.015Z,9.58
2023-02-19T00:14:19.719Z,9.54
2023-02-19T00:16:47.129Z,9.51
2023-02-19T00:19:18.620Z,9.48
2023-02-19T00:21:46.622Z,9.47
2023-02-19T00:24:15.242Z,9.45
2023-02-19T00:26:43.775Z,9.44
2023-02-19T00:29:20.663Z,9.46
2023-02-19T00:31:48.223Z,9.46
2023-02-19T00:34:15.319Z,9.45
2023-02-19T00:36:43.015Z,9.45
2023-02-19T00:39:15.571Z,9.43
2023-02-19T00:41:43.023Z,9.44
2023-02-19T00:44:12.754Z,9.43
2023-02-19T00:46:46.802Z,9.43
2023-02-19T00:49:22.035Z,9.44
2023-02-19T00:51:52.724Z,9.46
2023-02-19T00:54:22.603Z,9.48
2023-02-19T00:56:50.314Z,9.50
2023-02-19T00:59:17.606Z,9.51
2023-02-19T01:01:45.039Z,9.51
2023-02-19T01:04:12.396Z,9.51
2023-02-19T01:06:39.247Z,9.51
2023-02-19T01:09:07.809Z,9.55
2023-02-19T01:11:35.562Z,9.56
2023-02-19T01:14:03.872Z,9.57
2023-02-19T01:16:31.316Z,9.55
2023-02-19T01:18:58.870Z,9.54
2023-02-19T01:21:29.179Z,9.54
2023-02-19T01:23:57.757Z,9.54
2023-02-19T01:26:30.961Z,9.55
2023-02-19T01:28:59.673Z,9.54
2023-02-19T01:31:27.734Z,9.51
2023-02-19T01:34:03.728Z,9.52
2023-02-19T01:36:34.294Z,9.50
2023-02-19T01:39:04.997Z,9.48
2023-02-19T01:41:36.287Z,9.52
2023-02-19T01:44:09.495Z,9.54
2023-02-19T01:46:41.472Z,9.50
2023-02-19T01:49:18.785Z,9.49
2023-02-19T01:51:59.083Z,9.50
2023-02-19T01:54:32.224Z,9.51
2023-02-19T01:57:04.376Z,9.52
2023-02-19T01:59:33.243Z,9.52
2023-02-19T02:02:00.952Z,9.51
2023-02-19T02:04:31.787Z,9.52
2023-02-19T02:07:02.753Z,9.54
2023-02-19T02:09:50.067Z,9.52
2023-02-19T02:12:16.841Z,9.53
2023-02-19T02:14:48.241Z,9.51
2023-02-19T02:17:56.629Z,9.51
2023-02-19T02:20:36.046Z,9.49
2023-02-19T02:23:19.801Z,9.49
2023-02-19T02:26:10.972Z,9.48
2023-02-19T02:29:03.312Z,9.46
2023-02-19T02:31:41.755Z,9.46
2023-02-19T02:34:27.598Z,9.45
2023-02-19T02:36:57.246Z,9.43
2023-02-19T02:39:27.953Z,9.42
2023-02-19T02:42:18.453Z,9.42
2023-02-19T02:45:32.091Z,9.36
2023-02-19T02:47:59.411Z,9.31
2023-02-19T02:50:35.475Z,9.28
2023-02-19T02:53:47.292Z,9.27
2023-02-19T02:56:17.509Z,9.25
2023-02-19T02:58:46.719Z,9.20
2023-02-19T03:01:55.455Z,9.16
2023-02-19T03:04:36.082Z,9.17
2023-02-19T03:07:09.467Z,9.20
2023-02-19T03:09:43.199Z,9.22
2023-02-19T03:12:37.319Z,9.24
2023-02-19T03:15:29.113Z,9.24
2023-02-19T03:18:26.441Z,9.24
2023-02-19T03:20:58.410Z,9.22
2023-02-19T03:23:51.129Z,9.22
2023-02-19T03:26:20.163Z,9.21
2023-02-19T03:29:12.731Z,9.23
2023-02-19T03:31:45.016Z,9.24
2023-02-19T03:34:26.261Z,9.22
2023-02-19T03:37:06.549Z,9.24
2023-02-19T03:39:44.265Z,9.25
2023-02-19T03:42:40.795Z,9.27
2023-02-19T03:45:28.636Z,9.28
2023-02-19T03:48:21.119Z,9.29
2023-02-19T03:51:27.493Z,9.29
2023-02-19T03:54:28.062Z,9.34
2023-02-19T03:57:06.486Z,9.34
2023-02-19T03:59:50.253Z,9.34
2023-02-19T04:02:43.284Z,9.37
2023-02-19T04:05:24.523Z,9.38
2023-02-19T04:08:00.734Z,9.37
2023-02-19T04:10:34.238Z,9.38
2023-02-19T04:13:44.744Z,9.38
2023-02-19T04:16:20.639Z,9.37
2023-02-19T04:18:54.605Z,9.38
2023-02-19T04:21:24.193Z,9.40
2023-02-19T04:23:51.381Z,9.42
2023-02-19T04:26:22.673Z,9.40
2023-02-19T04:28:49.554Z,9.38
2023-02-19T04:31:16.582Z,9.38
2023-02-19T04:33:43.434Z,9.37
2023-02-19T04:36:11.823Z,9.34
2023-02-19T04:38:38.712Z,9.31
2023-02-19T04:41:05.694Z,9.29
2023-02-19T04:43:32.518Z,9.29
2023-02-19T04:46:02.720Z,9.29
2023-02-19T04:48:29.761Z,9.27
2023-02-19T04:50:56.717Z,9.25
2023-02-19T04:53:23.810Z,9.22
2023-02-19T04:55:53.319Z,9.18
2023-02-19T04:58:22.166Z,9.13
2023-02-19T05:00:52.889Z,9.07
2023-02-19T05:03:19.784Z,9.01
2023-02-19T05:05:46.820Z,8.95
2023-02-19T05:08:13.812Z,8.88
2023-02-19T05:10:40.874Z,8.83
2023-02-19T05:13:07.900Z,8.78
2023-02-19T05:15:34.913Z,8.74
2023-02-19T05:18:01.671Z,8.69
2023-02-19T05:20:28.489Z,8.70
2023-02-19T05:22:55.461Z,8.70
2023-02-19T05:25:22.337Z,8.67
2023-02-19T05:27:49.099Z,8.66
2023-02-19T05:30:16.117Z,8.65
2023-02-19T05:32:42.931Z,8.65
2023-02-19T05:35:09.666Z,8.65
2023-02-19T05:37:36.894Z,8.63
2023-02-19T05:40:04.173Z,8.63
2023-02-19T05:42:30.946Z,8.63
2023-02-19T05:44:57.708Z,8.62
2023-02-19T05:47:24.533Z,8.61
2023-02-19T05:49:51.306Z,8.63
2023-02-19T05:52:18.072Z,8.63
2023-02-19T05:54:44.863Z,8.66
2023-02-19T05:57:11.671Z,8.67
2023-02-19T05:59:38.444Z,8.70
2023-02-19T06:02:05.233Z,8.72
2023-02-19T06:04:32.024Z,8.71
2023-02-19T06:06:58.820Z,8.70
2023-02-19T06:09:25.654Z,8.71
2023-02-19T06:11:52.404Z,8.73
2023-02-19T06:14:19.167Z,8.73
2023-02-19T06:16:45.930Z,8.69
2023-02-19T06:19:12.784Z,8.66
2023-02-19T06:21:39.648Z,8.63
2023-02-19T06:24:09.184Z,8.58
2023-02-19T06:26:36.670Z,8.55
2023-02-19T06:29:03.853Z,8.54
2023-02-19T06:31:30.893Z,8.53
2023-02-19T06:33:57.743Z,8.53
2023-02-19T06:36:24.710Z,8.52
2023-02-19T06:38:51.904Z,8.54
2023-02-19T06:41:19.446Z,8.55
2023-02-19T06:43:46.733Z,8.56
2023-02-19T06:46:14.471Z,8.59
2023-02-19T06:48:44.138Z,8.62
2023-02-19T06:51:23.763Z,8.63
2023-02-19T06:53:50.640Z,8.66
2023-02-19T06:56:26.693Z,8.67
2023-02-19T06:58:57.252Z,8.70
2023-02-19T07:01:24.524Z,8.69
2023-02-19T07:03:52.679Z,8.71
2023-02-19T07:06:21.658Z,8.70
2023-02-19T07:08:49.370Z,8.73
2023-02-19T07:11:17.028Z,8.74
2023-02-19T07:13:43.834Z,8.76
2023-02-19T07:16:11.681Z,8.77
2023-02-19T07:18:40.526Z,8.78
2023-02-19T07:21:13.166Z,8.80
2023-02-19T07:23:41.526Z,8.83
2023-02-19T07:26:19.243Z,8.84
2023-02-19T07:28:49.128Z,8.88
2023-02-19T07:31:19.379Z,8.88
2023-02-19T07:33:47.638Z,8.87
2023-02-19T07:36:17.035Z,8.83
2023-02-19T07:38:45.096Z,8.83
2023-02-19T07:41:12.365Z,8.78
2023-02-19T07:43:40.368Z,8.70
2023-02-19T07:46:10.788Z,8.66
2023-02-19T07:48:40.273Z,8.62
2023-02-19T07:51:13.131Z,8.56
2023-02-19T07:53:40.098Z,8.52
2023-02-19T07:56:08.504Z,8.48
2023-02-19T07:58:35.606Z,8.48
2023-02-19T08:01:15.872Z,8.47
2023-02-19T08:03:43.697Z,8.45
2023-02-19T08:06:12.503Z,8.45
2023-02-19T08:08:40.472Z,8.45
2023-02-19T08:11:26.524Z,8.48
2023-02-19T08:13:53.968Z,8.48
2023-02-19T08:16:36.850Z,8.51
2023-02-19T08:19:08.913Z,8.53
2023-02-19T08:21:35.716Z,8.55
2023-02-19T08:24:02.538Z,8.56
2023-02-19T08:26:29.373Z,8.58
2023-02-19T08:28:56.526Z,8.58
2023-02-19T08:31:23.528Z,8.59
2023-02-19T08:33:50.597Z,8.61
2023-02-19T08:36:17.471Z,8.60
2023-02-19T08:38:44.621Z,8.57
2023-02-19T08:41:14.574Z,8.58
2023-02-19T08:43:42.912Z,8.57
2023-02-19T08:46:12.074Z,8.58
2023-02-19T08:48:40.269Z,8.58
2023-02-19T08:51:11.506Z,8.60
2023-02-19T08:53:41.105Z,8.63
2023-02-19T08:56:14.755Z,8.63
2023-02-19T08:58:42.468Z,8.61
2023-02-19T09:01:18.901Z,8.62
2023-02-19T09:03:45.947Z,8.61
2023-02-19T09:06:19.688Z,8.61
2023-02-19T09:08:46.750Z,8.60
2023-02-19T09:11:13.996Z,8.58
2023-02-19T09:13:41.262Z,8.58
2023-02-19T09:16:08.309Z,8.57
2023-02-19T09:18:35.815Z,8.56
2023-02-19T09:21:05.478Z,8.53
2023-02-19T09:23:37.194Z,8.52
2023-02-19T09:26:08.576Z,8.53
2023-02-19T09:28:36.220Z,8.55
2023-02-19T09:31:08.944Z,8.58
2023-02-19T09:33:36.208Z,8.62
2023-02-19T09:36:04.362Z,8.64
2023-02-19T09:38:31.153Z,8.69
2023-02-19T09:41:00.032Z,8.70
2023-02-19T09:43:29.937Z,8.67
2023-02-19T09:46:11.815Z,8.66
2023-02-19T09:48:38.633Z,8.64
2023-02-19T09:51:10.356Z,8.64
2023-02-19T09:53:45.664Z,8.65
2023-02-19T09:56:12.672Z,8.69
2023-02-19T09:58:56.004Z,8.73
2023-02-19T10:01:28.898Z,8.78
2023-02-19T10:03:55.948Z,8.75
2023-02-19T10:06:27.023Z,8.76
2023-02-19T10:09:23.948Z,8.81
2023-02-19T10:11:55.597Z,8.90
2023-02-19T10:14:51.135Z,9.04
2023-02-19T10:17:26.201Z,9.29
2023-02-19T10:19:54.162Z,9.40
2023-02-19T10:22:21.067Z,9.48
2023-02-19T10:24:54.160Z,9.52
2023-02-19T10:27:20.995Z,9.58
2023-02-19T10:29:50.451Z,9.64
2023-02-19T10:32:24.675Z,9.72
2023-02-19T10:35:16.251Z,9.83
2023-02-19T10:37:51.656Z,9.86
2023-02-19T10:40:29.068Z,9.84
2023-02-19T10:43:04.176Z,10.03
2023-02-19T10:45:47.819Z,10.34
2023-02-19T10:48:30.660Z,10.37
2023-02-19T10:51:05.129Z,10.30
2023-02-19T10:53:45.805Z,10.15
2023-02-19T10:56:31.418Z,10.03
2023-02-19T10:59:28.113Z,9.95
2023-02-19T11:01:57.660Z,9.88
2023-02-19T11:04:38.321Z,9.88
2023-02-19T11:07:18.390Z,9.89
2023-02-19T11:09:53.104Z,9.89
2023-02-19T11:12:35.771Z,9.87
2023-02-19T11:15:25.326Z,9.87
2023-02-19T11:18:00.123Z,10.04
2023-02-19T11:20:29.013Z,10.29
2023-02-19T11:23:15.123Z,10.52
2023-02-19T11:25:52.986Z,10.64
2023-02-19T11:28:43.114Z,10.70
2023-02-19T11:31:24.581Z,10.75
2023-02-19T11:33:59.165Z,10.71
2023-02-19T11:36:37.749Z,10.58
2023-02-19T11:39:16.684Z,10.37
2023-02-19T11:42:07.245Z,10.12
2023-02-19T11:45:05.365Z,9.86
2023-02-19T11:47:50.962Z,9.73
2023-02-19T11:50:54.089Z,9.66
2023-02-19T11:53:34.823Z,9.62
2023-02-19T11:56:23.605Z,9.67
2023-02-19T11:59:21.677Z,9.76
2023-02-19T12:02:07.424Z,9.86
2023-02-19T12:05:04.322Z,9.93
2023-02-19T12:08:07.325Z,9.95
2023-02-19T12:10:49.641Z,9.96
2023-02-19T12:13:56.614Z,10.02
2023-02-19T12:16:55.173Z,10.05
2023-02-19T12:19:49.209Z,10.09
2023-02-19T12:22:50.962Z,10.11
2023-02-19T12:25:35.868Z,10.12
2023-02-19T12:29:00.482Z,10.14
2023-02-19T12:32:06.411Z,10.10
2023-02-19T12:34:40.237Z,10.03
2023-02-19T12:37:45.290Z,9.96
2023-02-19T12:40:24.733Z,9.89
2023-02-19T12:43:09.878Z,9.83
2023-02-19T12:46:06.359Z,9.89
2023-02-19T12:48:39.033Z,10.00
2023-02-19T12:51:10.781Z,10.17
2023-02-19T12:54:27.503Z,10.25
2023-02-19T12:57:10.825Z,10.31
2023-02-19T12:59:43.833Z,10.17
2023-02-19T13:02:29.676Z,10.00
2023-02-19T13:05:41.387Z,9.91
2023-02-19T13:08:20.527Z,9.86
2023-02-19T13:11:02.581Z,9.85
2023-02-19T13:13:38.692Z,9.81
2023-02-19T13:16:18.773Z,9.71
2023-02-19T13:18:55.365Z,9.64
2023-02-19T13:21:46.690Z,9.60
2023-02-19T13:24:26.303Z,9.56
2023-02-19T13:27:31.966Z,9.46
2023-02-19T13:30:30.353Z,9.40
2023-02-19T13:33:34.225Z,9.36
2023-02-19T13:36:10.910Z,9.29
2023-02-19T13:38:43.329Z,9.27
2023-02-19T13:41:35.255Z,9.22
2023-02-19T13:44:06.659Z,9.21
2023-02-19T13:46:47.091Z,9.18
2023-02-19T13:49:24.602Z,9.18
2023-02-19T13:51:59.333Z,9.17
2023-02-19T13:54:32.020Z,9.13
2023-02-19T13:57:23.482Z,9.12
2023-02-19T13:59:52.656Z,9.10
2023-02-19T14:02:26.714Z,9.02
2023-02-19T14:05:10.900Z,8.97
2023-02-19T14:07:54.284Z,8.97
2023-02-19T14:10:45.988Z,8.94
2023-02-19T14:13:47.546Z,8.88
2023-02-19T14:16:49.115Z,8.82
2023-02-19T14:19:52.234Z,8.75
2023-02-19T14:22:52.082Z,8.71
2023-02-19T14:25:24.498Z,8.71
2023-02-19T14:28:16.486Z,8.76
2023-02-19T14:31:04.903Z,8.86
2023-02-19T14:33:37.672Z,9.00
2023-02-19T14:36:17.933Z,9.09
2023-02-19T14:38:59.666Z,9.05
2023-02-19T14:41:30.686Z,9.00
2023-02-19T14:44:01.022Z,8.97
2023-02-19T14:46:32.248Z,8.91
2023-02-19T14:49:15.196Z,8.80
2023-02-19T14:51:49.486Z,8.70
2023-02-19T14:54:35.716Z,8.58
2023-02-19T14:57:11.876Z,8.51
2023-02-19T14:59:38.749Z,8.47
2023-02-19T15:02:21.240Z,8.45
2023-02-19T15:04:48.454Z,8.45
2023-02-19T15:07:23.440Z,8.38
2023-02-19T15:09:57.068Z,8.37
2023-02-19T15:12:30.286Z,8.38
2023-02-19T15:15:04.887Z,8.35
2023-02-19T15:17:36.868Z,8.34
2023-02-19T15:20:15.644Z,8.34
2023-02-19T15:22:42.692Z,8.34
2023-02-19T15:25:18.978Z,8.36
2023-02-19T15:27:46.079Z,8.37
2023-02-19T15:30:24.653Z,8.38
2023-02-19T15:32:56.738Z,8.39
2023-02-19T15:35:26.638Z,8.38
2023-02-19T15:37:57.697Z,8.34
2023-02-19T15:40:32.399Z,8.25
2023-02-19T15:43:00.942Z,8.22
2023-02-19T15:45:44.582Z,8.22
2023-02-19T15:48:36.846Z,8.24
2023-02-19T15:51:16.062Z,8.26
2023-02-19T15:53:51.003Z,8.27
2023-02-19T15:56:29.511Z,8.26
2023-02-19T15:59:31.225Z,8.22
2023-02-19T16:02:00.739Z,8.21
2023-02-19T16:04:27.789Z,8.20
2023-02-19T16:06:56.538Z,8.17
2023-02-19T16:09:41.122Z,8.19
2023-02-19T16:12:23.725Z,8.17
2023-02-19T16:14:51.323Z,8.08
2023-02-19T16:17:27.824Z,8.02
2023-02-19T16:20:02.304Z,8.00
2023-02-19T16:22:40.576Z,7.95
2023-02-19T16:25:21.658Z,7.91
2023-02-19T16:27:48.618Z,7.88
2023-02-19T16:30:25.271Z,7.89
2023-02-19T16:33:38.477Z,7.87
2023-02-19T16:36:41.913Z,7.84
2023-02-19T16:39:08.680Z,7.85
2023-02-19T16:42:02.281Z,7.82
2023-02-19T16:44:30.938Z,7.80
2023-02-19T16:47:03.735Z,7.79
2023-02-19T16:49:31.322Z,7.77
2023-02-19T16:52:04.496Z,7.71
2023-02-19T16:54:31.711Z,7.68
2023-02-19T16:56:58.555Z,7.67
2023-02-19T16:59:25.358Z,7.67
2023-02-19T17:01:52.356Z,7.68
2023-02-19T17:04:19.345Z,7.64
2023-02-19T17:06:47.514Z,7.64
2023-02-19T17:09:14.334Z,7.61
2023-02-19T17:11:41.493Z,7.59
2023-02-19T17:14:09.278Z,7.56
2023-02-19T17:16:40.015Z,7.52
2023-02-19T17:19:15.794Z,7.52
2023-02-19T17:21:43.210Z,7.49
2023-02-19T17:24:09.993Z,7.50
2023-02-19T17:26:37.244Z,7.52
2023-02-19T17:29:07.355Z,7.56
2023-02-19T17:31:34.408Z,7.56
2023-02-19T17:34:01.409Z,7.52
2023-02-19T17:36:32.753Z,7.50
2023-02-19T17:39:02.566Z,7.49
2023-02-19T17:41:30.128Z,7.49
2023-02-19T17:44:00.880Z,7.45
2023-02-19T17:46:27.906Z,7.38
2023-02-19T17:48:55.596Z,7.37
2023-02-19T17:51:22.795Z,7.35
2023-02-19T17:53:49.890Z,7.34
2023-02-19T17:56:26.395Z,7.32
2023-02-19T17:58:55.843Z,7.27
2023-02-19T18:01:23.338Z,7.27
2023-02-19T18:03:51.065Z,7.26
2023-02-19T18:06:18.518Z,7.24
2023-02-19T18:08:50.996Z,7.18
2023-02-19T18:11:19.604Z,7.14
2023-02-19T18:13:48.034Z,7.12
2023-02-19T18:16:16.111Z,7.15
2023-02-19T18:18:44.546Z,7.19
2023-02-19T18:21:13.759Z,7.23
2023-02-19T18:23:40.829Z,7.27
2023-02-19T18:26:10.438Z,7.30
2023-02-19T18:28:37.971Z,7.31
2023-02-19T18:31:05.793Z,7.32
2023-02-19T18:33:35.092Z,7.30
2023-02-19T18:36:02.280Z,7.29
2023-02-19T18:38:29.171Z,7.27
2023-02-19T18:40:58.428Z,7.27
2023-02-19T18:43:26.088Z,7.26
2023-02-19T18:45:53.012Z,7.24
2023-02-19T18:48:20.019Z,7.17
2023-02-19T18:50:47.508Z,7.04
2023-02-19T18:53:14.384Z,6.94
2023-02-19T18:55:41.458Z,6.85
2023-02-19T18:58:08.256Z,6.77
2023-02-19T19:00:35.364Z,6.71
2023-02-19T19:03:02.187Z,6.64
2023-02-19T19:05:29.169Z,6.55
2023-02-19T19:07:59.269Z,6.48
2023-02-19T19:10:26.846Z,6.44
2023-02-19T19:12:54.560Z,6.35
2023-02-19T19:15:22.976Z,6.27
2023-02-19T19:17:50.308Z,6.22
2023-02-19T19:20:20.759Z,6.18
2023-02-19T19:22:53.102Z,6.11
2023-02-19T19:25:22.801Z,6.09
2023-02-19T19:27:53.315Z,6.07
2023-02-19T19:30:20.573Z,6.03
2023-02-19T19:32:52.646Z,6.01
2023-02-19T19:35:21.954Z,5.99
2023-02-19T19:37:49.671Z,5.97
2023-02-19T19:40:18.466Z,5.94
2023-02-19T19:42:46.063Z,5.90
2023-02-19T19:45:14.427Z,5.86
2023-02-19T19:47:41.224Z,5.82
2023-02-19T19:50:08.678Z,5.78
2023-02-19T19:52:35.552Z,5.74
2023-02-19T19:55:02.576Z,5.72
2023-02-19T19:57:29.387Z,5.67
2023-02-19T19:59:56.146Z,5.65
2023-02-19T20:02:23.945Z,5.62
2023-02-19T20:04:51.148Z,5.58
2023-02-19T20:07:18.324Z,5.55
2023-02-19T20:09:50.109Z,5.52
2023-02-19T20:12:18.200Z,5.49
2023-02-19T20:14:46.931Z,5.45
2023-02-19T20:17:15.074Z,5.43
2023-02-19T20:19:42.104Z,5.42
2023-02-19T20:22:08.862Z,5.39
2023-02-19T20:24:35.708Z,5.37
2023-02-19T20:27:02.942Z,5.36
2023-02-19T20:29:33.337Z,5.35
2023-02-19T20:32:02.483Z,5.33
2023-02-19T20:34:30.385Z,5.32
2023-02-19T20:36:59.175Z,5.32
2023-02-19T20:39:28.997Z,5.28
2023-02-19T20:41:57.715Z,5.26
2023-02-19T20:44:27.186Z,5.25
2023-02-19T20:46:55.837Z,5.25
2023-02-19T20:49:27.191Z,5.27
2023-02-19T20:51:58.220Z,5.26
2023-02-19T20:54:31.348Z,5.24
2023-02-19T20:57:02.289Z,5.21
2023-02-19T20:59:35.009Z,5.19
2023-02-19T21:02:22.321Z,5.17
2023-02-19T21:04:49.238Z,5.17
2023-02-19T21:07:16.780Z,5.18
2023-02-19T21:09:43.546Z,5.17
2023-02-19T21:12:10.497Z,5.17
2023-02-19T21:14:37.423Z,5.15
2023-02-19T21:17:05.470Z,5.14
2023-02-19T21:19:32.480Z,5.14
2023-02-19T21:21:59.559Z,5.13
2023-02-19T21:24:26.448Z,5.12
2023-02-19T21:26:53.324Z,5.11
2023-02-19T21:29:22.368Z,5.11
2023-02-19T21:31:56.708Z,5.10
2023-02-19T21:34:29.666Z,5.09
2023-02-19T21:36:56.997Z,5.10
2023-02-19T21:39:26.176Z,5.08
2023-02-19T21:41:53.957Z,5.06
2023-02-19T21:44:21.717Z,5.04
2023-02-19T21:46:48.798Z,4.99
2023-02-19T21:49:16.418Z,4.96
2023-02-19T21:51:45.498Z,4.91
2023-02-19T21:54:17.558Z,4.86
2023-02-19T21:56:44.997Z,4.86
2023-02-19T21:59:12.444Z,4.84
2023-02-19T22:01:39.639Z,4.82
2023-02-19T22:04:08.651Z,4.79
2023-02-19T22:06:35.632Z,4.78
2023-02-19T22:09:03.839Z,4.73
2023-02-19T22:11:30.680Z,4.71
2023-02-19T22:13:58.700Z,4.69
2023-02-19T22:16:25.928Z,4.66
2023-02-19T22:18:57.084Z,4.65
2023-02-19T22:21:27.936Z,4.62
2023-02-19T22:23:55.693Z,4.61
2023-02-19T22:26:32.627Z,4.60
2023-02-19T22:28:59.872Z,4.57
2023-02-19T22:31:28.362Z,4.58
2023-02-19T22:33:57.191Z,4.57
2023-02-19T22:36:28.458Z,4.55
2023-02-19T22:38:55.253Z,4.54
2023-02-19T22:41:22.838Z,4.54
2023-02-19T22:43:50.935Z,4.55
2023-02-19T22:46:21.717Z,4.56
2023-02-19T22:48:48.822Z,4.59
2023-02-19T22:51:18.875Z,4.57
2023-02-19T22:53:58.062Z,4.57
2023-02-19T22:56:27.774Z,4.59
2023-02-19T22:58:57.070Z,4.56
2023-02-19T23:01:25.226Z,4.58
2023-02-19T23:03:58.870Z,4.59
2023-02-19T23:06:34.435Z,4.58
2023-02-19T23:09:11.032Z,4.59
2023-02-19T23:11:39.216Z,4.58
2023-02-19T23:14:07.704Z,4.58
2023-02-19T23:16:36.620Z,4.57
2023-02-19T23:19:10.469Z,4.58
2023-02-19T23:21:42.468Z,4.57
2023-02-19T23:24:10.659Z,4.59
2023-02-19T23:26:43.679Z,4.57
2023-02-19T23:29:15.754Z,4.56
2023-02-19T23:31:45.019Z,4.56
2023-02-19T23:34:12.549Z,4.59
2023-02-19T23:36:49.263Z,4.58
2023-02-19T23:39:19.825Z,4.59
2023-02-19T23:41:50.799Z,4.59
2023-02-19T23:44:18.715Z,4.59
2023-02-19T23:46:45.873Z,4.61
2023-02-19T23:49:13.493Z,4.61
2023-02-19T23:51:40.395Z,4.68
2023-02-19T23:54:08.101Z,4.70
2023-02-19T23:56:35.661Z,4.74
2023-02-19T23:59:02.541Z,4.78
